createdAt,value
2024-03-02T00:00:01.694Z,70.04277459573038
2024-03-02T00:15:02.331Z,70.26285783848863
2024-03-02T00:30:02.030Z,70.34178694562407
2024-03-02T00:45:01.674Z,70.4599124125752
2024-03-02T01:00:02.374Z,70.53591214499887
2024-03-02T01:15:02.036Z,70.78746778163313
2024-03-02T01:30:01.677Z,70.9795624680173
2024-03-02T01:45:02.359Z,71.0155284428969
2024-03-02T02:00:02.043Z,71.14765870605281
2024-03-02T02:15:01.667Z,71.39376781553074
2024-03-02T02:30:02.426Z,71.59458648318743
2024-03-02T02:45:02.109Z,71.82644079832558
2024-03-02T03:00:01.725Z,71.9471101816543
2024-03-02T03:15:02.446Z,72.39199057746687
2024-03-02T03:30:02.141Z,72.62598411270537
2024-03-02T03:45:01.728Z,72.8911007451995
2024-03-02T04:00:02.379Z,73.08726028101506
2024-03-02T04:15:01.975Z,73.16335499119228
2024-03-02T04:30:01.693Z,73.18228054197351
2024-03-02T04:45:02.341Z,73.3530591872565
2024-03-02T05:00:01.971Z,73.59178023870653
2024-03-02T05:15:01.608Z,73.76945196755686
2024-03-02T05:30:01.798Z,73.89316456937586
2024-03-02T05:45:02.461Z,74.03225734340322
2024-03-02T06:00:02.364Z,74.14480920237249
2024-03-02T06:15:01.985Z,74.34476853269159
2024-03-02T06:30:01.669Z,74.43468602933106
2024-03-02T06:45:02.270Z,75.09310756355356
2024-03-02T07:00:01.934Z,75.03221104818562
2024-03-02T07:15:01.637Z,74.99982532890132
2024-03-02T07:30:02.376Z,74.9451636560556
2024-03-02T07:45:01.980Z,75.0197125707494
2024-03-02T08:00:01.679Z,75.05927707198398
2024-03-02T08:15:02.394Z,74.74382035483366
2024-03-02T08:30:02.085Z,74.25865749481834
2024-03-02T08:45:01.755Z,73.675913284159
2024-03-02T09:00:02.416Z,72.73385620900099
2024-03-02T09:15:02.062Z,72.33906457072865
2024-03-02T09:30:01.719Z,72.19548442890012
2024-03-02T09:45:02.326Z,70.44272180745993
2024-03-02T10:00:01.997Z,70.2819384952232
2024-03-02T10:15:01.646Z,68.66292135513717
2024-03-02T10:30:02.299Z,68.18323539198241
2024-03-02T10:45:01.919Z,68.40283492894928
2024-03-02T11:00:01.536Z,67.11114026890584
2024-03-02T11:15:02.210Z,65.80517140952087
2024-03-02T11:30:01.870Z,65.33747302858268
2024-03-02T11:45:02.521Z,64.97038538454473
2024-03-02T12:00:02.086Z,64.2771776445572
2024-03-02T12:15:01.689Z,64.54205809396862
2024-03-02T12:30:02.386Z,64.38919883279935
2024-03-02T12:45:02.044Z,64.03235439770573
2024-03-02T13:00:01.770Z,64.62948093895254
2024-03-02T13:15:02.384Z,63.032280077645325
2024-03-02T13:30:02.103Z,63.02857512549985
2024-03-02T13:45:01.750Z,62.794745286465776
2024-03-02T14:00:02.340Z,62.70506130497604
2024-03-02T14:15:01.927Z,62.23144840763184
2024-03-02T14:30:01.597Z,61.79785984576027
2024-03-02T14:45:02.192Z,59.3733277059711
2024-03-02T15:00:01.861Z,60.390621167054185
2024-03-02T15:15:02.636Z,59.81105485810859
2024-03-02T15:30:02.384Z,59.79342926612621
2024-03-02T15:45:02.023Z,60.86033471568577
2024-03-02T16:00:01.740Z,60.582435407665045
2024-03-02T16:15:02.395Z,60.39687250798174
2024-03-02T16:30:02.149Z,59.700312032302676
2024-03-02T16:45:01.816Z,60.19016367091781
2024-03-02T17:00:02.447Z,60.775847174901465
2024-03-02T17:15:02.060Z,60.997706126751716
2024-03-02T17:30:01.672Z,61.06970627515892
2024-03-02T17:45:02.320Z,61.29313001039994
2024-03-02T18:00:02.048Z,61.47015976891208
2024-03-02T18:15:01.740Z,61.71358626357121
2024-03-02T18:30:02.415Z,61.73103790041009
2024-03-02T18:45:02.107Z,61.87867067138784
2024-03-02T19:00:01.711Z,61.90856662634965
2024-03-02T19:15:02.324Z,62.06982381749681
2024-03-02T19:30:02.017Z,62.226124115538205
2024-03-02T19:45:01.658Z,62.342050020487164
2024-03-02T20:00:02.255Z,62.509203665099136
2024-03-02T20:15:01.952Z,62.55044533652405
2024-03-02T20:30:01.679Z,62.811840954100816
2024-03-02T20:45:02.328Z,62.940453748854075
2024-03-02T21:00:01.906Z,63.152500045318384
2024-03-02T21:15:02.520Z,63.488481253438174
2024-03-02T21:30:02.209Z,63.80263654385272
2024-03-02T21:45:01.813Z,64.09780671612259
2024-03-02T22:00:02.481Z,64.46957997271834
2024-03-02T22:15:02.187Z,64.81079491789708
2024-03-02T22:30:01.962Z,65.13291144376166
2024-03-02T22:45:01.616Z,65.44838694616382
2024-03-02T23:00:02.311Z,65.74512513923942
2024-03-02T23:15:01.940Z,65.98839408578067
2024-03-02T23:30:01.642Z,66.23878606829909
2024-03-02T23:45:02.283Z,66.47154821784977
